Terminal Aerodrome Forecast
Issued by NWS Houston/Galveston, TX

Home | Current Version | Previous Version | Text Only | Print | Product List | Glossary On
Versions: 1 2 3 4 5 6 7 8 9 10 11 12 13 14 15 16 17 18 19 20 21 22 23 24 25 26 27 28 29 30 31 32 33 34 35 36 37 38 39 40 41 42 43 44 45 46 47
000
FTUS44 KHGX 032320
TAFCLL
TAF
KCLL 032320Z 0400/0424 18012KT P6SM FEW030 SCT035 OVC060
     FM040300 17009KT 5SM BR OVC010
     FM040600 17011KT 3SM BR OVC004
     FM041500 14005KT 4SM BR VCSH OVC007
     FM042100 17009KT 4SM BR VCSH BKN007 OVC012=

USA.gov is the U.S. government's official web portal to all federal, state and local government web resources and services.